createdAt,value
2022-10-03T00:00:07.742Z,1024.05
2022-10-03T00:05:08.557Z,1024.13
2022-10-03T00:10:08.229Z,1024.22
2022-10-03T00:15:07.929Z,1024.22
2022-10-03T00:20:17.641Z,1024.2
2022-10-03T00:25:08.335Z,1024.32
2022-10-03T00:30:08.040Z,1024.36
2022-10-03T00:35:07.710Z,1024.33
2022-10-03T00:40:15.691Z,1024.43
2022-10-03T00:45:08.367Z,1024.45
2022-10-03T00:50:08.108Z,1024.45
2022-10-03T00:55:07.807Z,1024.55
2022-10-03T01:00:18.469Z,1024.58
2022-10-03T01:05:08.191Z,1024.63
2022-10-03T01:10:07.882Z,1024.62
2022-10-03T01:15:08.588Z,1024.68
2022-10-03T01:20:08.299Z,1024.75
2022-10-03T01:25:08.002Z,1024.63
2022-10-03T01:30:07.671Z,1024.62
2022-10-03T01:35:08.427Z,1024.67
2022-10-03T01:40:08.136Z,1024.74
2022-10-03T01:45:07.830Z,1024.88
2022-10-03T01:50:08.541Z,1024.78
2022-10-03T01:55:18.198Z,1024.88
2022-10-03T02:00:07.848Z,1024.88
2022-10-03T02:05:08.553Z,1024.9
2022-10-03T02:10:08.252Z,1024.93
2022-10-03T02:15:07.924Z,1025.0
2022-10-03T02:20:08.636Z,1024.97
2022-10-03T02:25:08.319Z,1025.07
2022-10-03T02:30:08.020Z,1025.09
2022-10-03T02:35:07.739Z,1025.03
2022-10-03T02:40:08.467Z,1025.08
2022-10-03T02:45:08.163Z,1025.11
2022-10-03T02:50:07.881Z,1025.11
2022-10-03T02:55:08.604Z,1025.1
2022-10-03T03:00:08.283Z,1025.13
2022-10-03T03:05:17.945Z,1025.17
2022-10-03T03:10:07.711Z,1025.12
2022-10-03T03:15:08.434Z,1025.18
2022-10-03T03:20:08.182Z,1025.18
2022-10-03T03:25:07.895Z,1025.21
2022-10-03T03:30:15.699Z,1025.09
2022-10-03T03:35:08.375Z,1025.09
2022-10-03T03:40:08.072Z,1025.2
2022-10-03T03:45:07.725Z,1025.23
2022-10-03T03:50:08.419Z,1025.16
2022-10-03T03:55:08.126Z,1025.28
2022-10-03T04:00:17.817Z,1025.26
2022-10-03T04:05:02.609Z,1025.3
2022-10-03T04:10:02.416Z,1025.38
2022-10-03T04:15:02.184Z,1025.33
2022-10-03T04:20:01.983Z,1025.35
2022-10-03T04:25:01.698Z,1025.38
2022-10-03T04:30:02.564Z,1025.39
2022-10-03T04:35:02.499Z,1025.45
2022-10-03T04:40:02.402Z,1025.33
2022-10-03T04:45:04.540Z,1025.39
2022-10-03T04:50:02.367Z,1025.39
2022-10-03T04:55:02.089Z,1025.39
2022-10-03T05:00:01.846Z,1025.39
2022-10-03T05:05:02.674Z,1025.35
2022-10-03T05:10:06.476Z,1025.46
2022-10-03T05:15:02.250Z,1025.52
2022-10-03T05:20:02.189Z,1025.53
2022-10-03T05:25:02.009Z,1025.57
2022-10-03T05:30:03.449Z,1025.62
2022-10-03T05:35:02.468Z,1025.7
2022-10-03T05:40:02.403Z,1025.78
2022-10-03T05:45:02.230Z,1025.92
2022-10-03T05:50:05.549Z,1025.88
2022-10-03T05:55:08.321Z,1025.84
2022-10-03T06:00:02.158Z,1025.88
2022-10-03T06:05:02.112Z,1025.94
2022-10-03T06:10:02.006Z,1025.93
2022-10-03T06:15:01.806Z,1025.99
2022-10-03T06:20:02.568Z,1025.9
2022-10-03T06:25:02.413Z,1025.91
2022-10-03T06:30:02.216Z,1025.99
2022-10-03T06:35:02.080Z,1026.1
2022-10-03T06:40:04.186Z,1026.14
2022-10-03T06:45:08.753Z,1026.33
2022-10-03T06:50:12.676Z,1026.3
2022-10-03T06:55:02.507Z,1026.22
2022-10-03T07:00:02.291Z,1026.22
2022-10-03T07:05:02.038Z,1026.27
2022-10-03T07:10:02.067Z,1026.24
2022-10-03T07:15:01.802Z,1026.23
2022-10-03T07:20:02.768Z,1026.34
2022-10-03T07:25:02.931Z,1026.35
2022-10-03T07:30:10.371Z,1026.39
2022-10-03T07:35:02.138Z,1026.41
2022-10-03T07:40:01.952Z,1026.5
2022-10-03T07:45:01.815Z,1026.52
2022-10-03T07:50:02.670Z,1026.58
2022-10-03T07:55:02.507Z,1026.61
2022-10-03T08:00:02.429Z,1026.62
2022-10-03T08:05:02.368Z,1026.74
2022-10-03T08:10:02.287Z,1026.8
2022-10-03T08:15:02.230Z,1026.83
2022-10-03T08:20:02.233Z,1026.81
2022-10-03T08:25:12.343Z,1026.88
2022-10-03T08:30:02.136Z,1026.87
2022-10-03T08:35:01.921Z,1026.84
2022-10-03T08:40:02.691Z,1026.89
2022-10-03T08:45:03.436Z,1026.81
2022-10-03T08:50:05.545Z,1026.78
2022-10-03T08:55:02.669Z,1026.77
2022-10-03T09:00:02.486Z,1026.87
2022-10-03T09:05:02.306Z,1026.81
2022-10-03T09:10:02.089Z,1026.91
2022-10-03T09:15:01.882Z,1026.87
2022-10-03T09:20:02.661Z,1026.93
2022-10-03T09:25:12.518Z,1026.88
2022-10-03T09:30:02.272Z,1026.82
2022-10-03T09:35:06.827Z,1026.86
2022-10-03T09:40:02.054Z,1026.8
2022-10-03T09:45:01.888Z,1026.75
2022-10-03T09:50:02.743Z,1026.73
2022-10-03T09:55:02.568Z,1026.74
2022-10-03T10:00:02.423Z,1026.68
2022-10-03T10:05:02.291Z,1026.59
2022-10-03T10:10:02.132Z,1026.57
2022-10-03T10:15:12.073Z,1026.66
2022-10-03T10:20:01.811Z,1026.5
2022-10-03T10:25:02.564Z,1026.44
2022-10-03T10:30:02.492Z,1026.41
2022-10-03T10:35:02.316Z,1026.34
2022-10-03T10:40:02.294Z,1026.36
2022-10-03T10:45:02.219Z,1026.13
2022-10-03T10:50:02.202Z,1026.14
2022-10-03T10:55:03.570Z,1026.23
2022-10-03T11:00:02.372Z,1026.33
2022-10-03T11:05:02.261Z,1026.33
2022-10-03T11:10:02.116Z,1026.32
2022-10-03T11:15:01.924Z,1026.32
2022-10-03T11:20:02.703Z,1026.21
2022-10-03T11:25:12.437Z,1026.3
2022-10-03T11:30:02.180Z,1026.26
2022-10-03T11:35:01.983Z,1026.26
2022-10-03T11:40:01.820Z,1026.18
2022-10-03T11:45:02.612Z,1026.17
2022-10-03T11:50:02.409Z,1026.15
2022-10-03T11:55:02.232Z,1026.18
2022-10-03T12:00:01.953Z,1026.18
2022-10-03T12:05:01.699Z,1026.15
2022-10-03T12:10:12.411Z,1026.11
2022-10-03T12:15:02.193Z,1026.03
2022-10-03T12:20:01.996Z,1026.08
2022-10-03T12:25:01.727Z,1026.03
2022-10-03T12:30:02.485Z,1026.03
2022-10-03T12:35:02.221Z,1026.06
2022-10-03T12:40:02.037Z,1026.05
2022-10-03T12:45:04.649Z,1026.0
2022-10-03T12:50:02.370Z,1026.01
2022-10-03T12:55:02.112Z,1025.95
2022-10-03T13:00:01.929Z,1025.87
2022-10-03T13:05:02.684Z,1025.93
2022-10-03T13:10:02.441Z,1025.9
2022-10-03T13:15:02.369Z,1025.88
2022-10-03T13:20:06.522Z,1025.89
2022-10-03T13:25:02.443Z,1025.87
2022-10-03T13:30:02.373Z,1025.77
2022-10-03T13:35:02.315Z,1025.82
2022-10-03T13:40:02.104Z,1025.79
2022-10-03T13:45:01.964Z,1025.76
2022-10-03T13:50:01.889Z,1025.64
2022-10-03T13:55:02.711Z,1025.65
2022-10-03T14:00:12.439Z,1025.64
2022-10-03T14:05:02.207Z,1025.57
2022-10-03T14:10:01.999Z,1025.52
2022-10-03T14:15:01.731Z,1025.55
2022-10-03T14:20:02.502Z,1025.41
2022-10-03T14:25:02.305Z,1025.37
2022-10-03T14:30:02.021Z,1025.35
2022-10-03T14:35:02.064Z,1025.44
2022-10-03T14:40:01.817Z,1025.45
2022-10-03T14:45:02.646Z,1025.41
2022-10-03T14:50:02.492Z,1025.39
2022-10-03T14:55:02.347Z,1025.44
2022-10-03T15:00:02.126Z,1025.35
2022-10-03T15:05:01.985Z,1025.3
2022-10-03T15:10:01.802Z,1025.31
2022-10-03T15:15:02.527Z,1025.19
2022-10-03T15:20:02.266Z,1025.18
2022-10-03T15:25:02.025Z,1025.04
2022-10-03T15:30:02.113Z,1025.02
2022-10-03T15:35:01.964Z,1025.0
2022-10-03T15:40:01.694Z,1025.04
2022-10-03T15:45:02.417Z,1025.02
2022-10-03T15:50:02.142Z,1025.0
2022-10-03T15:55:12.225Z,1024.94
2022-10-03T16:00:03.498Z,1024.85
2022-10-03T16:05:02.561Z,1024.88
2022-10-03T16:10:02.536Z,1024.73
2022-10-03T16:15:02.327Z,1024.7
2022-10-03T16:20:02.334Z,1024.71
2022-10-03T16:25:04.590Z,1024.66
2022-10-03T16:30:10.856Z,1024.63
2022-10-03T16:35:02.648Z,1024.51
2022-10-03T16:40:02.492Z,1024.51
2022-10-03T16:45:02.328Z,1024.46
2022-10-03T16:50:02.232Z,1024.54
2022-10-03T16:55:02.079Z,1024.57
2022-10-03T17:00:02.002Z,1024.5
2022-10-03T17:05:01.929Z,1024.43
2022-10-03T17:10:02.786Z,1024.43
2022-10-03T17:15:02.521Z,1024.37
2022-10-03T17:20:02.363Z,1024.43
2022-10-03T17:25:02.193Z,1024.44
2022-10-03T17:30:12.001Z,1024.41
2022-10-03T17:35:01.741Z,1024.43
2022-10-03T17:40:02.570Z,1024.38
2022-10-03T17:45:02.310Z,1024.36
2022-10-03T17:50:02.187Z,1024.39
2022-10-03T17:55:02.077Z,1024.33
2022-10-03T18:00:01.813Z,1024.36
2022-10-03T18:05:02.590Z,1024.32
2022-10-03T18:10:02.369Z,1024.28
2022-10-03T18:15:12.192Z,1024.28
2022-10-03T18:20:01.922Z,1024.25
2022-10-03T18:25:02.686Z,1024.28
2022-10-03T18:30:02.469Z,1024.21
2022-10-03T18:35:02.332Z,1024.18
2022-10-03T18:40:02.257Z,1024.33
2022-10-03T18:45:02.328Z,1024.44
2022-10-03T18:50:02.212Z,1024.3
2022-10-03T18:55:14.126Z,1024.38
2022-10-03T19:00:02.102Z,1024.15
2022-10-03T19:05:02.064Z,1024.13
2022-10-03T19:10:01.932Z,1024.07
2022-10-03T19:15:02.722Z,1024.06
2022-10-03T19:20:02.535Z,1024.06
2022-10-03T19:25:02.365Z,1024.1
2022-10-03T19:30:02.110Z,1024.1
2022-10-03T19:35:01.922Z,1024.11
2022-10-03T19:40:02.656Z,1024.25
2022-10-03T19:45:02.404Z,1024.18
2022-10-03T19:50:02.220Z,1024.04
2022-10-03T19:55:02.165Z,1023.94
2022-10-03T20:00:01.977Z,1023.94
2022-10-03T20:05:01.814Z,1023.99
2022-10-03T20:10:02.580Z,1024.1
2022-10-03T20:15:02.407Z,1024.01
2022-10-03T20:20:02.215Z,1024.11
2022-10-03T20:25:02.049Z,1023.97
2022-10-03T20:30:01.899Z,1023.95
2022-10-03T20:35:25.474Z,1024.0
2022-10-03T20:40:08.213Z,1024.09
2022-10-03T20:45:07.907Z,1024.0
2022-10-03T20:50:08.603Z,1024.04
2022-10-03T20:55:08.312Z,1024.03
2022-10-03T21:00:08.000Z,1023.95
2022-10-03T21:05:07.710Z,1023.95
2022-10-03T21:10:08.391Z,1023.92
2022-10-03T21:15:08.258Z,1024.01
2022-10-03T21:20:07.958Z,1024.01
2022-10-03T21:25:07.680Z,1023.91
2022-10-03T21:30:08.403Z,1023.98
2022-10-03T21:35:08.100Z,1023.92
2022-10-03T21:40:12.174Z,1023.77
2022-10-03T21:45:07.877Z,1023.83
2022-10-03T21:50:08.597Z,1023.88
2022-10-03T21:55:08.301Z,1023.76
2022-10-03T22:00:08.039Z,1023.74
2022-10-03T22:05:07.741Z,1023.67
2022-10-03T22:10:08.480Z,1023.61
2022-10-03T22:15:08.167Z,1023.63
2022-10-03T22:20:12.383Z,1023.63
2022-10-03T22:25:08.412Z,1023.47
2022-10-03T22:30:08.119Z,1023.41
2022-10-03T22:35:07.817Z,1023.29
2022-10-03T22:40:08.498Z,1023.29
2022-10-03T22:45:08.211Z,1023.31
2022-10-03T22:50:07.914Z,1023.34
2022-10-03T22:55:08.619Z,1023.25
2022-10-03T23:01:02.084Z,1023.27
2022-10-03T23:05:08.688Z,1023.34
2022-10-03T23:10:07.762Z,1023.23
2022-10-03T23:15:08.454Z,1023.12
2022-10-03T23:20:08.156Z,1023.13
2022-10-03T23:25:07.854Z,1023.11
2022-10-03T23:30:08.550Z,1023.02
2022-10-03T23:35:08.265Z,1023.09
2022-10-03T23:40:07.945Z,1023.02
2022-10-03T23:45:08.636Z,1022.89
2022-10-03T23:50:08.335Z,1022.78
2022-10-03T23:55:08.050Z,1022.84
